createdAt,value
2019-03-21T00:01:55.758Z,74.80
2019-03-21T00:04:21.936Z,74.80
2019-03-21T00:06:48.310Z,74.60
2019-03-21T00:09:16.997Z,74.80
2019-03-21T00:12:09.153Z,75.30
2019-03-21T00:14:54.340Z,75.40
2019-03-21T00:17:23.922Z,75.60
2019-03-21T00:19:50.007Z,75.80
2019-03-21T00:22:16.124Z,75.70
2019-03-21T00:24:42.409Z,75.60
2019-03-21T00:27:08.554Z,75.50
2019-03-21T00:29:34.768Z,76.80
2019-03-21T00:32:00.845Z,77.70
2019-03-21T00:34:27.015Z,77.80
2019-03-21T00:36:53.113Z,78.00
2019-03-21T00:39:19.218Z,77.60
2019-03-21T00:41:45.379Z,77.50
2019-03-21T00:44:18.199Z,78.40
2019-03-21T00:46:39.440Z,78.40
2019-03-21T00:49:05.522Z,77.90
2019-03-21T00:51:31.619Z,78.00
2019-03-21T00:53:57.691Z,78.40
2019-03-21T00:56:24.106Z,78.80
2019-03-21T00:58:50.428Z,78.90
2019-03-21T01:01:16.500Z,78.30
2019-03-21T01:03:42.600Z,78.10
2019-03-21T01:06:08.789Z,78.70
2019-03-21T01:08:34.849Z,79.50
2019-03-21T01:11:00.988Z,78.90
2019-03-21T01:13:30.379Z,79.00
2019-03-21T01:15:56.485Z,79.40
2019-03-21T01:18:22.544Z,79.50
2019-03-21T01:20:48.615Z,80.20
2019-03-21T01:23:14.693Z,80.10
2019-03-21T01:25:44.774Z,80.50
2019-03-21T01:28:10.852Z,81.00
2019-03-21T01:30:36.942Z,81.10
2019-03-21T01:33:03.168Z,81.30
2019-03-21T01:35:29.353Z,81.40
2019-03-21T01:37:55.457Z,81.60
2019-03-21T01:40:37.285Z,81.80
2019-03-21T01:43:03.540Z,81.80
2019-03-21T01:45:30.161Z,81.80
2019-03-21T01:47:56.254Z,81.80
2019-03-21T01:50:35.021Z,81.90
2019-03-21T01:53:01.126Z,82.00
2019-03-21T01:55:27.197Z,82.00
2019-03-21T01:57:53.264Z,82.80
2019-03-21T02:00:25.692Z,82.40
2019-03-21T02:02:54.409Z,82.60
2019-03-21T02:05:20.485Z,82.40
2019-03-21T02:07:46.584Z,82.70
2019-03-21T02:10:14.888Z,82.70
2019-03-21T02:12:41.049Z,83.00
2019-03-21T02:15:10.884Z,82.90
2019-03-21T02:17:36.955Z,83.10
2019-03-21T02:20:06.843Z,83.90
2019-03-21T02:22:32.921Z,83.40
2019-03-21T02:24:59.036Z,83.30
2019-03-21T02:27:25.112Z,83.50
2019-03-21T02:29:51.181Z,83.60
2019-03-21T02:32:17.256Z,83.00
2019-03-21T02:34:43.344Z,83.60
2019-03-21T02:37:09.708Z,83.80
2019-03-21T02:39:36.015Z,83.60
2019-03-21T02:42:02.110Z,83.70
2019-03-21T02:44:28.284Z,83.80
2019-03-21T02:46:54.345Z,84.70
2019-03-21T02:49:20.425Z,84.20
2019-03-21T02:51:46.518Z,84.20
2019-03-21T02:54:12.992Z,84.20
2019-03-21T02:56:39.066Z,84.20
2019-03-21T02:59:05.151Z,84.20
2019-03-21T03:01:31.281Z,84.00
2019-03-21T03:03:57.355Z,84.10
2019-03-21T03:06:23.441Z,83.90
2019-03-21T03:08:49.623Z,84.00
2019-03-21T03:11:21.225Z,84.40
2019-03-21T03:13:49.232Z,84.70
2019-03-21T03:16:15.476Z,84.70
2019-03-21T03:18:41.536Z,84.60
2019-03-21T03:21:07.669Z,85.00
2019-03-21T03:23:33.773Z,85.10
2019-03-21T03:25:59.932Z,85.30
2019-03-21T03:28:32.719Z,85.30
2019-03-21T03:30:58.898Z,84.70
2019-03-21T03:33:25.953Z,85.30
2019-03-21T03:35:52.117Z,85.30
2019-03-21T03:38:18.194Z,85.10
2019-03-21T03:40:59.602Z,85.30
2019-03-21T03:43:25.700Z,85.10
2019-03-21T03:45:51.872Z,85.10
2019-03-21T03:48:19.830Z,85.30
2019-03-21T03:50:45.980Z,85.00
2019-03-21T03:53:12.077Z,85.00
2019-03-21T03:55:38.229Z,84.70
2019-03-21T03:58:20.200Z,84.60
2019-03-21T04:00:46.376Z,84.30
2019-03-21T04:03:12.574Z,84.20
2019-03-21T04:05:38.729Z,84.50
2019-03-21T04:08:05.135Z,85.80
2019-03-21T04:10:34.292Z,89.30
2019-03-21T04:13:00.439Z,87.90
2019-03-21T04:15:26.594Z,87.30
2019-03-21T04:17:52.777Z,87.30
2019-03-21T04:20:25.184Z,87.10
2019-03-21T04:22:51.360Z,86.90
2019-03-21T04:25:27.322Z,86.80
2019-03-21T04:27:53.405Z,86.50
2019-03-21T04:30:19.529Z,86.60
2019-03-21T04:32:45.728Z,86.20
2019-03-21T04:35:12.705Z,86.00
2019-03-21T04:37:38.881Z,86.80
2019-03-21T04:40:10.726Z,87.00
2019-03-21T04:42:36.851Z,88.20
2019-03-21T04:45:12.257Z,87.70
2019-03-21T04:47:38.357Z,87.50
2019-03-21T04:50:16.588Z,87.70
2019-03-21T04:52:42.717Z,88.00
2019-03-21T04:55:11.688Z,88.00
2019-03-21T04:57:37.819Z,88.30
2019-03-21T05:00:10.988Z,88.80
2019-03-21T05:02:37.105Z,88.70
2019-03-21T05:05:06.867Z,88.00
2019-03-21T05:07:33.003Z,87.90
2019-03-21T05:09:59.152Z,87.90
2019-03-21T05:12:25.350Z,87.70
2019-03-21T05:14:51.469Z,88.00
2019-03-21T05:17:17.554Z,88.50
2019-03-21T05:19:43.640Z,88.60
2019-03-21T05:22:09.724Z,89.10
2019-03-21T05:24:35.827Z,89.10
2019-03-21T05:27:01.939Z,89.00
2019-03-21T05:29:28.089Z,88.90
2019-03-21T05:31:54.216Z,89.60
2019-03-21T05:34:20.328Z,89.70
2019-03-21T05:36:46.410Z,89.80
2019-03-21T05:39:12.619Z,89.90
2019-03-21T05:41:39.909Z,90.00
2019-03-21T05:44:09.787Z,90.00
2019-03-21T05:46:35.897Z,89.90
2019-03-21T05:49:01.996Z,89.90
2019-03-21T05:51:28.166Z,90.00
2019-03-21T05:53:54.279Z,90.00
2019-03-21T05:56:20.344Z,90.00
2019-03-21T05:58:46.517Z,90.00
2019-03-21T06:01:12.717Z,90.00
2019-03-21T06:03:49.271Z,89.70
2019-03-21T06:06:35.896Z,90.00
2019-03-21T06:09:04.184Z,90.00
2019-03-21T06:11:30.293Z,90.00
2019-03-21T06:13:56.693Z,90.00
2019-03-21T06:16:22.769Z,90.00
2019-03-21T06:18:55.501Z,90.00
2019-03-21T06:21:34.342Z,90.00
2019-03-21T06:24:04.323Z,89.90
2019-03-21T06:26:43.561Z,89.70
2019-03-21T06:29:09.772Z,89.60
2019-03-21T06:31:35.847Z,89.60
2019-03-21T06:34:01.981Z,89.60
2019-03-21T06:36:28.252Z,89.80
2019-03-21T06:38:54.350Z,89.80
2019-03-21T06:41:20.426Z,89.70
2019-03-21T06:43:46.550Z,89.70
2019-03-21T06:46:12.724Z,89.70
2019-03-21T06:48:38.837Z,89.80
2019-03-21T06:51:04.987Z,89.80
2019-03-21T06:53:31.163Z,89.90
2019-03-21T06:55:57.258Z,90.30
2019-03-21T06:58:23.344Z,89.80
2019-03-21T07:00:49.629Z,89.70
2019-03-21T07:03:16.550Z,90.30
2019-03-21T07:05:42.964Z,90.10
2019-03-21T07:08:09.868Z,90.10
2019-03-21T07:10:36.184Z,90.00
2019-03-21T07:13:02.813Z,90.00
2019-03-21T07:15:28.897Z,89.90
2019-03-21T07:17:55.039Z,90.00
2019-03-21T07:20:21.191Z,90.00
2019-03-21T07:22:47.367Z,89.80
2019-03-21T07:25:13.551Z,89.70
2019-03-21T07:27:39.624Z,89.50
2019-03-21T07:30:09.101Z,89.40
2019-03-21T07:32:35.233Z,89.20
2019-03-21T07:35:01.321Z,89.10
2019-03-21T07:37:27.383Z,89.40
2019-03-21T07:39:53.455Z,89.50
2019-03-21T07:42:19.539Z,90.20
2019-03-21T07:44:45.681Z,89.70
2019-03-21T07:47:13.312Z,90.00
2019-03-21T07:49:39.786Z,90.30
2019-03-21T07:52:06.001Z,90.70
2019-03-21T07:54:32.137Z,90.20
2019-03-21T07:56:58.215Z,90.30
2019-03-21T07:59:24.289Z,90.30
2019-03-21T08:01:50.380Z,90.20
2019-03-21T08:04:16.513Z,90.20
2019-03-21T08:06:42.672Z,90.20
2019-03-21T08:09:08.812Z,90.00
2019-03-21T08:11:34.957Z,90.30
2019-03-21T08:14:01.031Z,90.20
2019-03-21T08:16:27.126Z,90.10
2019-03-21T08:18:53.223Z,90.20
2019-03-21T08:21:19.298Z,90.00
2019-03-21T08:23:45.384Z,89.70
2019-03-21T08:26:11.472Z,89.30
2019-03-21T08:28:37.619Z,89.30
2019-03-21T08:31:07.541Z,88.90
2019-03-21T08:33:33.613Z,88.00
2019-03-21T08:35:59.717Z,87.80
2019-03-21T08:38:25.804Z,87.40
2019-03-21T08:40:51.863Z,87.60
2019-03-21T08:43:17.950Z,87.40
2019-03-21T08:45:44.054Z,87.80
2019-03-21T08:48:10.098Z,87.50
2019-03-21T08:50:36.172Z,86.60
2019-03-21T08:53:02.281Z,86.40
2019-03-21T08:55:28.392Z,85.20
2019-03-21T08:57:54.473Z,83.70
2019-03-21T09:00:20.549Z,80.70
2019-03-21T09:02:46.623Z,82.10
2019-03-21T09:05:12.820Z,80.90
2019-03-21T09:07:39.017Z,81.40
2019-03-21T09:10:08.003Z,80.50
2019-03-21T09:12:34.585Z,78.20
2019-03-21T09:15:00.672Z,77.30
2019-03-21T09:17:26.761Z,76.80
2019-03-21T09:19:52.867Z,78.90
2019-03-21T09:22:18.928Z,78.00
2019-03-21T09:24:45.001Z,78.00
2019-03-21T09:27:11.096Z,77.60
2019-03-21T09:29:37.279Z,76.50
2019-03-21T09:32:03.570Z,75.70
2019-03-21T09:34:29.636Z,76.60
2019-03-21T09:36:55.733Z,77.40
2019-03-21T09:39:21.852Z,76.80
2019-03-21T09:41:47.908Z,74.50
2019-03-21T09:44:25.949Z,75.60
2019-03-21T09:46:52.020Z,74.70
2019-03-21T09:49:18.112Z,75.20
2019-03-21T09:51:44.194Z,75.30
2019-03-21T09:54:10.299Z,74.50
2019-03-21T09:56:36.470Z,73.90
2019-03-21T09:59:02.643Z,74.80
2019-03-21T10:01:28.732Z,75.30
2019-03-21T10:03:54.834Z,73.40
2019-03-21T10:06:21.028Z,75.60
2019-03-21T10:08:47.124Z,72.80
2019-03-21T10:11:13.203Z,71.20
2019-03-21T10:13:39.320Z,74.10
2019-03-21T10:16:05.401Z,74.80
2019-03-21T10:18:31.586Z,74.10
2019-03-21T10:20:57.706Z,73.70
2019-03-21T10:23:23.791Z,72.50
2019-03-21T10:25:50.108Z,72.20
2019-03-21T10:28:16.291Z,68.60
2019-03-21T10:30:42.378Z,70.70
2019-03-21T10:33:11.407Z,71.10
2019-03-21T10:35:37.596Z,70.60
2019-03-21T10:38:04.377Z,68.40
2019-03-21T10:40:30.568Z,69.80
2019-03-21T10:42:56.682Z,65.10
2019-03-21T10:45:22.781Z,64.80
2019-03-21T10:47:48.855Z,61.70
2019-03-21T10:50:30.775Z,59.10
2019-03-21T10:52:57.371Z,62.80
2019-03-21T10:55:23.428Z,62.30
2019-03-21T10:57:49.536Z,59.00
2019-03-21T11:00:15.649Z,61.90
2019-03-21T11:02:41.825Z,59.10
2019-03-21T11:05:07.929Z,58.50
2019-03-21T11:07:33.992Z,58.70
2019-03-21T11:10:00.174Z,57.90
2019-03-21T11:12:26.481Z,59.50
2019-03-21T11:14:52.567Z,56.80
2019-03-21T11:17:18.688Z,58.10
2019-03-21T11:19:44.784Z,57.10
2019-03-21T11:22:10.847Z,52.60
2019-03-21T11:24:36.936Z,55.80
2019-03-21T11:27:03.008Z,54.70
2019-03-21T11:29:29.094Z,56.10
2019-03-21T11:31:55.276Z,56.10
2019-03-21T11:34:21.444Z,55.80
2019-03-21T11:36:47.540Z,52.80
2019-03-21T11:39:13.649Z,56.20
2019-03-21T11:41:39.796Z,55.90
2019-03-21T11:44:05.926Z,51.90
2019-03-21T11:46:31.994Z,52.00
2019-03-21T11:48:58.174Z,52.80
2019-03-21T11:51:24.374Z,51.20
2019-03-21T11:53:50.523Z,53.90
2019-03-21T11:56:16.769Z,50.40
2019-03-21T11:58:42.913Z,49.10
2019-03-21T12:01:08.999Z,49.90
2019-03-21T12:03:35.092Z,49.60
2019-03-21T12:06:01.174Z,48.50
2019-03-21T12:08:27.289Z,51.00
2019-03-21T12:10:53.384Z,51.30
2019-03-21T12:13:19.499Z,49.40
2019-03-21T12:15:45.585Z,49.60
2019-03-21T12:18:11.674Z,47.50
2019-03-21T12:20:37.739Z,47.50
2019-03-21T12:23:03.935Z,48.20
2019-03-21T12:25:30.027Z,48.90
2019-03-21T12:27:56.320Z,48.00
2019-03-21T12:30:30.941Z,48.50
2019-03-21T12:32:57.032Z,50.10
2019-03-21T12:35:23.105Z,48.20
2019-03-21T12:37:49.191Z,48.40
2019-03-21T12:40:15.280Z,47.20
2019-03-21T12:42:41.387Z,48.00
2019-03-21T12:45:08.860Z,46.40
2019-03-21T12:47:35.029Z,45.50
2019-03-21T12:50:01.155Z,44.60
2019-03-21T12:52:27.229Z,44.50
2019-03-21T12:54:53.305Z,45.00
2019-03-21T12:57:19.539Z,44.50
2019-03-21T12:59:45.620Z,43.80
2019-03-21T13:02:11.837Z,44.30
2019-03-21T13:04:37.896Z,44.50
2019-03-21T13:07:03.973Z,38.80
2019-03-21T13:09:30.074Z,43.40
2019-03-21T13:11:56.170Z,42.20
2019-03-21T13:14:22.239Z,42.70
2019-03-21T13:16:48.354Z,43.00
2019-03-21T13:19:14.460Z,41.10
2019-03-21T13:21:40.568Z,41.90
2019-03-21T13:24:06.634Z,43.70
2019-03-21T13:26:32.725Z,41.50
2019-03-21T13:28:58.805Z,43.20
2019-03-21T13:31:24.873Z,42.90
2019-03-21T13:33:51.242Z,41.70
2019-03-21T13:36:17.637Z,41.80
2019-03-21T13:38:43.795Z,42.00
2019-03-21T13:41:09.945Z,43.20
2019-03-21T13:43:36.049Z,42.30
2019-03-21T13:46:02.259Z,43.00
2019-03-21T13:48:28.399Z,43.20
2019-03-21T13:50:54.569Z,37.90
2019-03-21T14:03:07.473Z,42.00
2019-03-21T14:05:33.563Z,43.00
2019-03-21T14:07:59.630Z,42.30
2019-03-21T14:10:25.899Z,42.30
2019-03-21T14:12:52.225Z,42.10
2019-03-21T14:15:18.490Z,37.30
2019-03-21T14:17:44.670Z,33.70
2019-03-21T14:20:12.804Z,38.70
2019-03-21T14:22:38.998Z,38.20
2019-03-21T14:25:06.488Z,38.70
2019-03-21T14:27:32.794Z,37.80
2019-03-21T14:30:01.829Z,34.30
2019-03-21T14:32:26.857Z,35.70
2019-03-21T16:59:10.874Z,29.00
2019-03-21T17:01:36.945Z,29.80
2019-03-21T17:04:03.077Z,29.70
2019-03-21T17:06:29.186Z,29.30
2019-03-21T17:08:55.370Z,29.40
2019-03-21T17:11:21.519Z,29.90
2019-03-21T17:13:47.665Z,30.20
2019-03-21T17:16:13.760Z,30.50
2019-03-21T17:18:39.978Z,30.50
2019-03-21T17:21:09.265Z,30.90
2019-03-21T17:23:35.035Z,31.60
2019-03-21T17:26:01.212Z,32.00
2019-03-21T17:28:27.422Z,32.30
2019-03-21T17:30:55.620Z,32.70
2019-03-21T17:33:21.696Z,33.20
2019-03-21T17:35:47.809Z,33.20
2019-03-21T17:38:15.170Z,33.40
2019-03-21T17:40:43.184Z,33.30
2019-03-21T17:43:09.839Z,33.30
2019-03-21T17:45:36.045Z,33.40
2019-03-21T17:48:03.472Z,33.30
2019-03-21T17:50:31.172Z,33.30
2019-03-21T17:52:58.235Z,33.40
2019-03-21T17:55:24.396Z,33.60
2019-03-21T17:57:50.770Z,33.90
2019-03-21T18:00:21.556Z,33.80
2019-03-21T18:02:47.656Z,33.90
2019-03-21T18:05:14.897Z,34.10
2019-03-21T18:07:41.569Z,34.40
2019-03-21T18:10:24.423Z,34.90
2019-03-21T18:12:51.706Z,35.20
2019-03-21T18:15:17.807Z,35.60
2019-03-21T18:17:43.899Z,35.80
2019-03-21T18:20:10.089Z,36.00
2019-03-21T18:22:37.532Z,36.20
2019-03-21T18:25:05.433Z,36.40
2019-03-21T18:27:31.629Z,36.30
2019-03-21T18:29:59.420Z,36.10
2019-03-21T18:32:25.525Z,36.60
2019-03-21T18:34:51.620Z,37.00
2019-03-21T18:37:18.500Z,37.30
2019-03-21T18:39:44.617Z,37.20
2019-03-21T18:42:10.789Z,37.70
2019-03-21T18:44:36.931Z,37.70
2019-03-21T18:47:04.532Z,38.10
2019-03-21T18:49:31.193Z,38.90
2019-03-21T18:51:57.316Z,39.50
2019-03-21T18:54:23.385Z,39.50
2019-03-21T18:56:49.468Z,39.70
2019-03-21T18:59:16.509Z,40.00
2019-03-21T19:01:43.354Z,40.00
2019-03-21T19:04:09.521Z,40.30
2019-03-21T19:06:36.265Z,40.40
2019-03-21T19:09:05.364Z,40.50
2019-03-21T19:11:32.597Z,40.70
2019-03-21T19:13:59.864Z,40.70
2019-03-21T19:16:27.572Z,41.60
2019-03-21T19:18:53.741Z,41.60
2019-03-21T19:21:20.857Z,41.60
2019-03-21T19:23:46.937Z,41.80
2019-03-21T19:26:14.128Z,42.00
2019-03-21T19:28:40.619Z,42.20
2019-03-21T19:31:06.733Z,42.20
2019-03-21T19:33:32.794Z,42.50
2019-03-21T19:35:58.851Z,42.90
2019-03-21T19:38:24.984Z,43.10
2019-03-21T19:40:51.059Z,42.80
2019-03-21T19:43:17.189Z,43.00
2019-03-21T19:45:43.265Z,43.30
2019-03-21T19:48:09.349Z,43.30
2019-03-21T19:50:35.557Z,43.80
2019-03-21T19:53:01.738Z,43.90
2019-03-21T19:55:31.130Z,44.10
2019-03-21T19:57:55.833Z,44.00
2019-03-21T20:00:22.521Z,44.00
2019-03-21T20:02:49.041Z,44.80
2019-03-21T20:05:15.345Z,44.70
2019-03-21T20:07:41.573Z,45.10
2019-03-21T20:10:10.089Z,45.40
2019-03-21T20:12:36.401Z,45.70
2019-03-21T20:15:05.505Z,46.10
2019-03-21T20:17:31.673Z,46.20
2019-03-21T20:19:57.807Z,47.00
2019-03-21T20:22:24.009Z,46.20
2019-03-21T20:24:50.306Z,47.40
2019-03-21T20:27:16.395Z,47.90
2019-03-21T20:29:42.512Z,48.30
2019-03-21T20:32:19.917Z,48.40
2019-03-21T20:34:36.924Z,48.80
2019-03-21T20:37:03.124Z,48.90
2019-03-21T20:39:29.309Z,49.20
2019-03-21T20:41:55.381Z,49.20
2019-03-21T20:44:21.520Z,49.60
2019-03-21T20:46:47.595Z,49.90
2019-03-21T20:49:13.773Z,50.30
2019-03-21T20:51:39.960Z,50.40
2019-03-21T20:54:06.156Z,50.70
2019-03-21T20:56:32.252Z,50.60
2019-03-21T20:58:58.387Z,50.50
2019-03-21T21:01:24.628Z,51.30
2019-03-21T21:03:50.718Z,51.80
2019-03-21T21:06:16.843Z,52.20
2019-03-21T21:08:42.934Z,51.80
2019-03-21T21:11:09.024Z,52.90
2019-03-21T21:13:35.133Z,53.70
2019-03-21T21:16:01.209Z,53.70
2019-03-21T21:18:27.289Z,54.60
2019-03-21T21:20:53.390Z,55.00
2019-03-21T21:23:19.453Z,55.50
2019-03-21T21:25:45.542Z,56.20
2019-03-21T21:28:11.647Z,56.00
2019-03-21T21:30:37.708Z,56.70
2019-03-21T21:33:03.864Z,57.10
2019-03-21T21:35:29.947Z,57.00
2019-03-21T21:37:56.431Z,57.70
2019-03-21T21:40:22.537Z,58.10
2019-03-21T21:42:48.750Z,58.40
2019-03-21T21:45:15.747Z,58.10
2019-03-21T21:47:41.938Z,59.20
2019-03-21T21:50:13.154Z,59.70
2019-03-21T21:52:42.178Z,59.10
2019-03-21T21:55:07.632Z,60.20
2019-03-21T21:57:33.915Z,59.90
2019-03-21T22:00:00.005Z,60.60
2019-03-21T22:02:26.125Z,62.10
2019-03-21T22:04:52.199Z,67.40
2019-03-21T22:07:18.298Z,69.50
2019-03-21T22:09:44.504Z,69.60
2019-03-21T22:12:10.600Z,68.80
2019-03-21T22:14:36.693Z,68.50
2019-03-21T22:17:02.988Z,68.50
2019-03-21T22:19:29.365Z,68.40
2019-03-21T22:21:55.465Z,68.30
2019-03-21T22:24:21.539Z,68.10
2019-03-21T22:26:47.742Z,68.20
2019-03-21T22:29:13.815Z,68.40
2019-03-21T22:31:39.959Z,68.20
2019-03-21T22:34:06.157Z,71.80
2019-03-21T22:36:32.255Z,69.60
2019-03-21T22:38:58.364Z,70.60
2019-03-21T22:41:24.460Z,71.50
2019-03-21T22:43:50.530Z,71.70
2019-03-21T22:46:16.633Z,71.80
2019-03-21T22:48:42.715Z,71.80
2019-03-21T22:51:08.864Z,72.00
2019-03-21T22:53:35.073Z,72.40
2019-03-21T22:56:01.183Z,72.30
2019-03-21T22:58:31.650Z,75.70
2019-03-21T23:00:55.362Z,73.30
2019-03-21T23:03:21.552Z,73.70
2019-03-21T23:05:47.737Z,81.90
2019-03-21T23:08:13.830Z,77.10
2019-03-21T23:10:39.923Z,76.70
2019-03-21T23:13:06.081Z,76.60
2019-03-21T23:15:32.258Z,75.20
2019-03-21T23:17:58.438Z,75.60
2019-03-21T23:20:24.529Z,75.50
2019-03-21T23:22:50.604Z,75.80
2019-03-21T23:25:17.063Z,76.50
2019-03-21T23:27:43.428Z,77.00
2019-03-21T23:30:13.441Z,80.50
2019-03-21T23:32:39.676Z,77.70
2019-03-21T23:35:06.672Z,78.00
2019-03-21T23:37:33.069Z,79.30
2019-03-21T23:39:59.265Z,79.10
2019-03-21T23:42:25.428Z,78.70
2019-03-21T23:44:51.530Z,78.40
2019-03-21T23:47:17.667Z,78.20
2019-03-21T23:49:43.718Z,78.30
2019-03-21T23:52:09.825Z,78.30
2019-03-21T23:54:36.012Z,78.00
2019-03-21T23:57:04.666Z,77.50
2019-03-21T23:59:30.052Z,78.00
